KPTS/PTS METAR and TAF weather

Enter ICAO airport designator
Station Type Date Time Source
KPTS METAR 2021/08/05 04:15 UTC NOAA

KPTS 050415Z AUTO 10003KT 10SM CLR 22/19 A3009 RMK AO2 T02220185


Station Type Date Time Source
KPTS Decoded METAR 2021/08/05 04:15 UTC NOAA

Station name not available
Aug 05, 2021 - 12:15 AM EDT / 2021.08.05 0415 UTC
Wind: from the E (100 degrees) at 3 MPH (3 KT):0
Visibility: 10 mile(s):0
Sky conditions: clear
Temperature: 72.0 F (22.2 C)
Dew Point: 65.3 F (18.5 C)
Relative Humidity: 79%
Pressure (altimeter): 30.09 in. Hg (1018 hPa)
ob: KPTS 050415Z AUTO 10003KT 10SM CLR 22/19 A3009 RMK AO2 T02220185
cycle: 4

Station Type Date Time Source
KPTS TAF UTC NOAA

Error!

Example: see airport list